createdAt,value
2022-11-21T00:02:02.354Z,3.28
2022-11-21T00:04:29.187Z,3.25
2022-11-21T00:06:55.972Z,2.90
2022-11-21T00:09:22.591Z,2.50
2022-11-21T00:11:51.276Z,4.22
2022-11-21T00:14:17.823Z,3.00
2022-11-21T00:16:45.766Z,3.95
2022-11-21T00:19:12.373Z,3.80
2022-11-21T00:21:38.926Z,3.15
2022-11-21T00:24:05.959Z,3.40
2022-11-21T00:26:32.505Z,4.00
2022-11-21T00:28:59.055Z,4.18
2022-11-21T00:31:25.958Z,4.22
2022-11-21T00:33:52.542Z,4.22
2022-11-21T00:36:19.147Z,4.10
2022-11-21T00:38:45.704Z,3.42
2022-11-21T00:41:12.274Z,3.40
2022-11-21T00:43:38.894Z,3.03
2022-11-21T00:46:05.491Z,2.80
2022-11-21T00:48:32.476Z,2.80
2022-11-21T00:51:00.372Z,2.47
2022-11-21T00:53:27.202Z,2.40
2022-11-21T00:55:53.915Z,2.20
2022-11-21T00:58:20.447Z,2.08
2022-11-21T01:00:47.056Z,2.42
2022-11-21T01:03:13.705Z,2.40
2022-11-21T01:05:40.263Z,1.60
2022-11-21T01:08:06.862Z,1.75
2022-11-21T01:10:35.372Z,2.45
2022-11-21T01:13:02.067Z,1.75
2022-11-21T01:15:28.624Z,1.60
2022-11-21T01:17:55.162Z,2.33
2022-11-21T01:20:21.850Z,1.80
2022-11-21T01:22:48.410Z,1.40
2022-11-21T01:25:15.007Z,1.80
2022-11-21T01:27:41.593Z,3.47
2022-11-21T01:30:08.660Z,5.00
2022-11-21T01:32:35.291Z,5.60
2022-11-21T01:35:01.832Z,5.95
2022-11-21T01:37:28.376Z,7.13
2022-11-21T01:39:55.137Z,6.45
2022-11-21T01:42:21.731Z,7.43
2022-11-21T01:44:53.443Z,5.28
2022-11-21T01:47:20.845Z,3.15
2022-11-21T01:49:48.337Z,2.10
2022-11-21T01:52:29.627Z,1.73
2022-11-21T01:55:02.368Z,2.88
2022-11-21T01:57:42.611Z,3.40
2022-11-21T02:00:15.902Z,1.42
2022-11-21T02:02:47.804Z,6.68
2022-11-21T02:05:25.375Z,7.30
2022-11-21T02:07:57.200Z,6.07
2022-11-21T02:10:23.950Z,7.60
2022-11-21T02:12:54.227Z,6.63
2022-11-21T02:15:23.409Z,4.05
2022-11-21T02:17:50.356Z,5.00
2022-11-21T02:20:19.751Z,8.73
2022-11-21T02:23:04.636Z,7.82
2022-11-21T02:25:36.191Z,6.20
2022-11-21T02:28:08.794Z,3.03
2022-11-21T02:30:40.954Z,11.25
2022-11-21T02:33:07.824Z,9.48
2022-11-21T02:35:34.837Z,15.02
2022-11-21T02:38:06.319Z,10.40
2022-11-21T02:40:36.546Z,11.38
2022-11-21T02:43:21.841Z,14.90
2022-11-21T02:45:48.438Z,8.57
2022-11-21T02:48:15.391Z,7.72
2022-11-21T02:50:46.959Z,14.30
2022-11-21T02:53:18.436Z,12.70
2022-11-21T02:55:45.371Z,8.95
2022-11-21T02:58:12.771Z,14.52
2022-11-21T03:00:41.292Z,10.93
2022-11-21T03:03:08.271Z,10.77
2022-11-21T03:05:35.300Z,8.98
2022-11-21T03:08:01.960Z,7.65
2022-11-21T03:10:28.545Z,11.55
2022-11-21T03:13:01.425Z,8.77
2022-11-21T03:15:33.884Z,15.65
2022-11-21T03:18:02.781Z,13.55
2022-11-21T03:20:34.794Z,11.65
2022-11-21T03:23:01.976Z,15.13
2022-11-21T03:25:29.025Z,10.45
2022-11-21T03:27:55.861Z,13.85
2022-11-21T03:30:24.152Z,14.65
2022-11-21T03:32:50.983Z,9.15
2022-11-21T03:35:17.893Z,9.68
2022-11-21T03:37:44.547Z,10.95
2022-11-21T03:40:11.772Z,9.38
2022-11-21T03:42:38.444Z,12.32
2022-11-21T03:45:05.482Z,8.70
2022-11-21T03:47:32.224Z,9.15
2022-11-21T03:49:58.835Z,8.40
2022-11-21T03:52:25.501Z,8.98
2022-11-21T03:54:52.087Z,8.00
2022-11-21T03:57:19.195Z,5.05
2022-11-21T03:59:45.737Z,8.15
2022-11-21T04:02:12.335Z,12.45
2022-11-21T04:04:38.903Z,10.50
2022-11-21T04:07:05.580Z,8.95
2022-11-21T04:09:32.179Z,7.07
2022-11-21T04:11:58.746Z,7.18
2022-11-21T04:14:25.508Z,8.30
2022-11-21T04:16:52.331Z,9.05
2022-11-21T04:19:18.878Z,11.55
2022-11-21T04:21:45.399Z,5.25
2022-11-21T04:24:12.080Z,2.88
2022-11-21T04:26:38.705Z,7.80
2022-11-21T04:29:05.252Z,4.38
2022-11-21T04:31:31.810Z,15.93
2022-11-21T04:33:58.919Z,14.80
2022-11-21T04:36:25.531Z,4.70
2022-11-21T04:38:52.111Z,8.68
2022-11-21T04:41:18.653Z,4.18
2022-11-21T04:43:45.237Z,11.32
2022-11-21T04:46:11.835Z,11.63
2022-11-21T04:48:38.389Z,7.75
2022-11-21T04:51:05.019Z,11.95
2022-11-21T04:53:31.650Z,12.07
2022-11-21T04:55:58.262Z,12.60
2022-11-21T04:58:24.853Z,10.63
2022-11-21T05:00:51.624Z,10.13
2022-11-21T05:03:18.267Z,9.45
2022-11-21T05:05:44.932Z,8.82
2022-11-21T05:08:11.477Z,9.43
2022-11-21T05:10:58.015Z,8.90
2022-11-21T05:13:24.793Z,17.75
2022-11-21T05:15:56.979Z,10.05
2022-11-21T05:18:23.660Z,11.95
2022-11-21T05:20:50.279Z,11.80
2022-11-21T05:23:16.840Z,13.55
2022-11-21T05:25:43.382Z,10.50
2022-11-21T05:28:10.226Z,10.10
2022-11-21T05:30:37.597Z,12.15
2022-11-21T05:33:04.735Z,11.23
2022-11-21T05:35:31.456Z,12.13
2022-11-21T05:37:58.848Z,8.77
2022-11-21T05:40:25.999Z,10.30
2022-11-21T05:43:11.314Z,9.88
2022-11-21T05:45:37.906Z,7.55
2022-11-21T05:48:07.760Z,4.97
2022-11-21T05:50:36.393Z,6.55
2022-11-21T05:53:05.786Z,6.07
2022-11-21T05:55:35.282Z,9.93
2022-11-21T05:58:02.111Z,8.73
2022-11-21T06:00:29.144Z,6.25
2022-11-21T06:03:14.809Z,15.45
2022-11-21T06:05:41.523Z,4.20
2022-11-21T06:08:08.113Z,3.90
2022-11-21T06:10:34.692Z,8.15
2022-11-21T06:13:02.091Z,9.32
2022-11-21T06:15:29.290Z,8.73
2022-11-21T06:17:56.029Z,3.45
2022-11-21T06:20:22.680Z,12.80
2022-11-21T06:22:49.455Z,12.43
2022-11-21T06:25:16.109Z,12.82
2022-11-21T06:27:42.671Z,9.32
2022-11-21T06:30:09.737Z,15.30
2022-11-21T06:32:37.872Z,10.50
2022-11-21T06:35:04.983Z,10.90
2022-11-21T06:37:31.583Z,9.60
2022-11-21T06:39:58.612Z,9.73
2022-11-21T06:42:25.158Z,10.10
2022-11-21T06:44:53.119Z,8.95
2022-11-21T06:47:19.872Z,5.72
2022-11-21T06:49:46.454Z,8.70
2022-11-21T06:52:13.035Z,7.80
2022-11-21T06:54:39.634Z,8.32
2022-11-21T06:57:06.194Z,6.85
2022-11-21T06:59:32.802Z,7.20
2022-11-21T07:01:59.890Z,6.63
2022-11-21T07:04:26.708Z,6.88
2022-11-21T07:06:53.529Z,6.25
2022-11-21T07:09:35.375Z,6.75
2022-11-21T07:12:21.136Z,6.63
2022-11-21T07:14:47.763Z,5.88
2022-11-21T07:17:14.709Z,6.10
2022-11-21T07:19:41.351Z,5.75
2022-11-21T07:22:08.504Z,5.78
2022-11-21T07:24:35.057Z,6.20
2022-11-21T07:27:02.327Z,6.45
2022-11-21T07:29:29.173Z,6.50
2022-11-21T07:31:56.246Z,5.93
2022-11-21T07:34:22.814Z,4.63
2022-11-21T07:36:49.373Z,7.35
2022-11-21T07:39:15.947Z,6.95
2022-11-21T07:41:42.490Z,6.38
2022-11-21T07:44:09.095Z,6.10
2022-11-21T07:46:35.639Z,5.00
2022-11-21T07:49:03.754Z,4.70
2022-11-21T07:51:30.562Z,4.85
2022-11-21T07:53:57.110Z,5.35
2022-11-21T07:56:26.291Z,5.30
2022-11-21T07:58:53.272Z,5.70
2022-11-21T08:01:19.920Z,5.85
2022-11-21T08:03:46.599Z,6.05
2022-11-21T08:06:13.626Z,5.50
2022-11-21T08:08:40.204Z,5.10
2022-11-21T08:11:07.404Z,5.35
2022-11-21T08:13:35.249Z,5.80
2022-11-21T08:16:05.094Z,5.35
2022-11-21T08:18:31.767Z,6.25
2022-11-21T08:21:01.272Z,7.72
2022-11-21T08:23:27.917Z,6.18
2022-11-21T08:25:54.490Z,7.07
2022-11-21T08:28:21.099Z,6.32
2022-11-21T08:30:47.632Z,7.28
2022-11-21T08:33:14.252Z,7.38
2022-11-21T08:35:42.112Z,7.80
2022-11-21T08:38:08.872Z,7.20
2022-11-21T08:40:36.180Z,8.00
2022-11-21T08:43:05.565Z,7.25
2022-11-21T08:45:33.748Z,6.93
2022-11-21T08:48:00.730Z,6.57
2022-11-21T08:50:28.081Z,7.57
2022-11-21T08:53:01.333Z,7.13
2022-11-21T08:55:28.527Z,7.00
2022-11-21T08:57:55.084Z,6.72
2022-11-21T09:00:21.837Z,7.35
2022-11-21T09:02:48.485Z,7.07
2022-11-21T09:05:15.190Z,7.70
2022-11-21T09:07:41.917Z,6.22
2022-11-21T09:10:09.099Z,7.72
2022-11-21T09:12:35.722Z,6.78
2022-11-21T09:15:20.858Z,6.13
2022-11-21T09:18:07.729Z,6.85
2022-11-21T09:20:40.093Z,7.85
2022-11-21T09:23:08.690Z,8.60
2022-11-21T09:25:35.407Z,7.30
2022-11-21T09:28:03.268Z,6.57
2022-11-21T09:30:30.041Z,6.20
2022-11-21T09:33:07.287Z,5.68
2022-11-21T09:35:34.195Z,8.88
2022-11-21T09:38:00.766Z,7.30
2022-11-21T09:40:30.124Z,4.93
2022-11-21T09:43:05.717Z,4.90
2022-11-21T09:45:47.565Z,5.35
2022-11-21T09:48:20.292Z,5.72
2022-11-21T09:50:55.321Z,4.10
2022-11-21T09:53:31.250Z,4.25
2022-11-21T09:56:10.683Z,5.25
2022-11-21T09:58:43.680Z,5.28
2022-11-21T10:01:14.498Z,5.50
2022-11-21T10:03:49.582Z,3.05
2022-11-21T10:06:26.938Z,5.35
2022-11-21T10:09:09.749Z,5.05
2022-11-21T10:12:12.800Z,4.32
2022-11-21T10:15:01.985Z,5.03
2022-11-21T10:17:49.252Z,4.13
2022-11-21T10:20:43.068Z,5.05
2022-11-21T10:23:24.799Z,4.25
2022-11-21T10:26:09.847Z,3.30
2022-11-21T10:28:55.151Z,3.65
2022-11-21T10:31:22.852Z,4.53
2022-11-21T10:33:53.030Z,3.55
2022-11-21T10:36:35.908Z,3.80
2022-11-21T10:39:20.844Z,3.30
2022-11-21T10:42:01.209Z,2.50
2022-11-21T10:44:48.360Z,1.35
2022-11-21T10:47:28.216Z,1.67
2022-11-21T10:50:05.496Z,3.00
2022-11-21T10:52:54.830Z,1.35
2022-11-21T10:55:21.440Z,2.05
2022-11-21T10:57:50.197Z,1.33
2022-11-21T11:00:23.367Z,1.55
2022-11-21T11:02:55.893Z,2.20
2022-11-21T11:05:24.685Z,1.98
2022-11-21T11:08:09.727Z,1.92
2022-11-21T11:10:43.139Z,2.15
2022-11-21T11:13:46.835Z,2.65
2022-11-21T11:16:19.725Z,2.55
2022-11-21T11:19:01.458Z,2.33
2022-11-21T11:21:44.059Z,2.30
2022-11-21T11:24:10.662Z,2.05
2022-11-21T11:26:49.607Z,2.47
2022-11-21T11:29:18.701Z,2.17
2022-11-21T11:32:19.504Z,1.40
2022-11-21T11:35:00.410Z,1.88
2022-11-21T11:37:47.080Z,2.50
2022-11-21T11:40:32.569Z,2.30
2022-11-21T11:43:42.927Z,2.22
2022-11-21T11:46:30.817Z,2.20
2022-11-21T11:49:25.130Z,2.17
2022-11-21T11:51:56.291Z,2.13
2022-11-21T11:54:47.389Z,1.40
2022-11-21T11:57:14.169Z,1.50
2022-11-21T11:59:47.094Z,1.50
2022-11-21T12:02:34.916Z,1.52
2022-11-21T12:05:09.178Z,1.75
2022-11-21T12:11:01.428Z,1.65
2022-11-21T12:13:29.673Z,2.85
2022-11-21T12:16:05.895Z,1.35
2022-11-21T12:19:02.989Z,1.20
2022-11-21T12:21:29.775Z,1.27
2022-11-21T12:23:58.809Z,1.65
2022-11-21T12:27:00.753Z,1.60
2022-11-21T12:29:57.066Z,1.75
2022-11-21T12:32:55.466Z,1.50
2022-11-21T12:35:48.045Z,1.50
2022-11-21T12:38:47.070Z,1.30
2022-11-21T12:41:51.360Z,1.40
2022-11-21T12:44:27.203Z,1.88
2022-11-21T12:46:59.676Z,1.08
2022-11-21T12:49:56.064Z,1.75
2022-11-21T12:52:52.207Z,1.42
2022-11-21T12:55:37.513Z,1.17
2022-11-21T12:58:18.959Z,1.33
2022-11-21T13:00:51.668Z,1.67
2022-11-21T13:03:33.374Z,1.30
2022-11-21T13:06:02.028Z,1.20
2022-11-21T13:08:31.772Z,1.60
2022-11-21T13:11:25.804Z,1.45
2022-11-21T13:14:02.136Z,1.40
2022-11-21T13:16:37.159Z,1.30
2022-11-21T13:19:16.372Z,1.45
2022-11-21T13:21:44.014Z,1.15
2022-11-21T13:24:10.828Z,2.25
2022-11-21T13:26:37.345Z,1.45
2022-11-21T13:29:12.651Z,1.42
2022-11-21T13:31:40.652Z,1.42
2022-11-21T13:34:34.336Z,1.50
2022-11-21T13:37:01.302Z,1.40
2022-11-21T13:39:31.093Z,1.40
2022-11-21T13:42:24.446Z,1.50
2022-11-21T13:44:51.551Z,1.25
2022-11-21T13:47:59.797Z,1.58
2022-11-21T13:50:45.026Z,1.52
2022-11-21T13:53:47.849Z,1.75
2022-11-21T13:56:26.355Z,1.63
2022-11-21T13:59:17.966Z,1.50
2022-11-21T14:01:48.548Z,1.25
2022-11-21T14:04:33.722Z,1.67
2022-11-21T14:07:22.622Z,1.90
2022-11-21T14:09:51.678Z,1.00
2022-11-21T14:12:39.657Z,1.50
2022-11-21T14:15:34.296Z,1.20
2022-11-21T14:18:01.857Z,1.40
2022-11-21T14:20:49.557Z,1.77
2022-11-21T14:23:19.146Z,1.67
2022-11-21T14:25:54.580Z,1.35
2022-11-21T14:28:26.726Z,1.40
2022-11-21T14:31:07.112Z,1.75
2022-11-21T14:33:47.708Z,1.10
2022-11-21T14:36:23.570Z,1.23
2022-11-21T14:39:35.561Z,1.33
2022-11-21T14:41:55.618Z,1.42
2022-11-21T14:44:23.018Z,1.00
2022-11-21T14:47:03.251Z,1.40
2022-11-21T14:49:29.898Z,1.15
2022-11-21T14:52:06.159Z,1.15
2022-11-21T14:55:28.095Z,1.50
2022-11-21T14:57:43.105Z,1.50
2022-11-21T15:00:36.025Z,1.10
2022-11-21T15:03:03.146Z,1.15
2022-11-21T15:05:54.932Z,1.00
2022-11-21T15:11:11.426Z,1.10
2022-11-21T15:13:58.615Z,1.40
2022-11-21T15:16:25.442Z,1.23
2022-11-21T15:18:52.039Z,1.20
2022-11-21T15:21:18.639Z,1.05
2022-11-21T15:23:45.371Z,1.50
2022-11-21T15:26:41.404Z,1.30
2022-11-21T15:29:22.235Z,1.00
2022-11-21T15:32:14.019Z,1.70
2022-11-21T15:34:42.950Z,1.27
2022-11-21T15:37:17.273Z,1.42
2022-11-21T15:39:45.977Z,1.02
2022-11-21T15:42:50.034Z,1.20
2022-11-21T15:45:20.343Z,1.80
2022-11-21T15:47:47.578Z,1.33
2022-11-21T15:50:14.956Z,1.50
2022-11-21T15:52:49.269Z,1.40
2022-11-21T15:55:29.093Z,1.70
2022-11-21T15:57:55.759Z,1.38
2022-11-21T16:00:22.823Z,2.60
2022-11-21T16:02:49.371Z,1.30
2022-11-21T16:05:16.384Z,1.00
2022-11-21T16:07:43.027Z,1.30
2022-11-21T16:10:15.592Z,1.85
2022-11-21T16:12:47.074Z,1.58
2022-11-21T16:15:14.224Z,0.90
2022-11-21T16:17:41.571Z,1.42
2022-11-21T16:20:08.689Z,1.80
2022-11-21T16:22:35.244Z,1.23
2022-11-21T16:25:01.809Z,1.38
2022-11-21T16:27:28.556Z,1.30
2022-11-21T16:29:55.097Z,1.05
2022-11-21T16:32:21.679Z,1.13
2022-11-21T16:34:48.213Z,1.35
2022-11-21T16:37:14.863Z,1.08
2022-11-21T16:39:41.870Z,1.00
2022-11-21T16:42:11.239Z,1.02
2022-11-21T16:44:37.998Z,1.75
2022-11-21T16:47:08.351Z,1.00
2022-11-21T16:49:35.715Z,1.58
2022-11-21T16:52:02.405Z,0.95
2022-11-21T16:54:29.097Z,1.77
2022-11-21T16:56:55.782Z,2.00
2022-11-21T16:59:22.345Z,1.42
2022-11-21T17:01:48.977Z,1.35
2022-11-21T17:04:29.143Z,2.85
2022-11-21T17:06:55.794Z,1.50
2022-11-21T17:09:22.346Z,2.13
2022-11-21T17:11:48.895Z,1.58
2022-11-21T17:14:15.523Z,1.23
2022-11-21T17:16:42.111Z,1.33
2022-11-21T17:19:11.760Z,1.67
2022-11-21T17:21:38.325Z,0.95
2022-11-21T17:24:05.088Z,1.10
2022-11-21T17:26:31.687Z,1.15
2022-11-21T17:29:00.798Z,1.42
2022-11-21T17:31:27.607Z,1.95
2022-11-21T17:33:56.488Z,1.55
2022-11-21T17:36:25.026Z,1.55
2022-11-21T17:38:52.420Z,1.20
2022-11-21T17:41:20.592Z,1.15
2022-11-21T17:43:48.181Z,1.30
2022-11-21T17:46:17.321Z,1.42
2022-11-21T17:48:48.474Z,0.82
2022-11-21T17:51:23.832Z,1.90
2022-11-21T17:53:51.573Z,1.20
2022-11-21T17:56:23.178Z,1.60
2022-11-21T17:58:51.255Z,1.63
2022-11-21T18:01:21.756Z,1.55
2022-11-21T18:03:54.623Z,1.20
2022-11-21T18:06:21.211Z,1.10
2022-11-21T18:08:48.708Z,1.02
2022-11-21T18:11:19.577Z,1.38
2022-11-21T18:13:48.095Z,1.88
2022-11-21T18:16:17.925Z,1.30
2022-11-21T18:18:45.306Z,1.50
2022-11-21T18:21:15.312Z,1.35
2022-11-21T18:23:43.909Z,1.90
2022-11-21T18:26:16.461Z,3.10
2022-11-21T18:28:43.475Z,1.27
2022-11-21T18:31:16.033Z,1.10
2022-11-21T18:33:43.338Z,1.85
2022-11-21T18:36:11.586Z,2.47
2022-11-21T18:38:50.466Z,1.38
2022-11-21T18:41:33.979Z,1.88
2022-11-21T18:44:02.751Z,1.25
2022-11-21T18:46:31.880Z,1.40
2022-11-21T18:49:05.164Z,1.77
2022-11-21T18:51:32.805Z,1.27
2022-11-21T18:54:04.193Z,1.88
2022-11-21T18:56:31.210Z,0.90
2022-11-21T18:58:59.027Z,1.65
2022-11-21T19:01:28.313Z,1.60
2022-11-21T19:03:55.709Z,1.40
2022-11-21T19:06:24.170Z,1.90
2022-11-21T19:08:53.258Z,1.20
2022-11-21T19:11:21.314Z,1.63
2022-11-21T19:13:48.772Z,1.10
2022-11-21T19:16:18.560Z,2.03
2022-11-21T19:18:59.813Z,1.88
2022-11-21T19:21:35.579Z,0.95
2022-11-21T19:24:02.250Z,1.42
2022-11-21T19:26:31.249Z,1.80
2022-11-21T19:28:58.742Z,1.00
2022-11-21T19:31:25.530Z,1.75
2022-11-21T19:33:52.118Z,1.55
2022-11-21T19:36:23.392Z,2.55
2022-11-21T19:38:51.597Z,1.35
2022-11-21T19:41:25.300Z,2.10
2022-11-21T19:43:54.311Z,1.10
2022-11-21T19:46:23.117Z,1.48
2022-11-21T19:48:51.297Z,2.08
2022-11-21T19:51:18.763Z,1.40
2022-11-21T19:53:45.923Z,1.20
2022-11-21T19:56:14.940Z,1.30
2022-11-21T19:58:42.506Z,1.23
2022-11-21T20:01:11.593Z,0.82
2022-11-21T20:03:39.953Z,2.20
2022-11-21T20:06:13.812Z,1.08
2022-11-21T20:08:40.551Z,1.17
2022-11-21T20:11:12.622Z,1.10
2022-11-21T20:13:40.657Z,2.28
2022-11-21T20:16:15.135Z,1.70
2022-11-21T20:18:41.670Z,1.35
2022-11-21T20:21:12.663Z,2.72
2022-11-21T20:23:39.416Z,1.73
2022-11-21T20:26:07.962Z,1.23
2022-11-21T20:28:36.167Z,1.00
2022-11-21T20:31:08.041Z,1.30
2022-11-21T20:33:36.512Z,1.10
2022-11-21T20:36:08.314Z,1.48
2022-11-21T20:38:35.976Z,1.15
2022-11-21T20:41:03.245Z,1.23
2022-11-21T20:43:52.954Z,1.10
2022-11-21T20:46:20.463Z,1.02
2022-11-21T20:48:47.682Z,2.17
2022-11-21T20:54:03.588Z,1.13
2022-11-21T20:56:33.292Z,1.65
2022-11-21T20:59:00.091Z,1.02
2022-11-21T21:01:27.686Z,1.90
2022-11-21T21:03:54.700Z,1.00
2022-11-21T21:06:23.861Z,2.17
2022-11-21T21:08:51.463Z,1.30
2022-11-21T21:11:49.812Z,1.45
2022-11-21T21:14:07.927Z,2.60
2022-11-21T21:16:34.593Z,1.20
2022-11-21T21:19:01.231Z,2.03
2022-11-21T21:21:30.399Z,1.27
2022-11-21T21:24:06.761Z,1.77
2022-11-21T21:26:41.910Z,1.80
2022-11-21T21:29:11.800Z,2.30
2022-11-21T21:31:38.561Z,1.30
2022-11-21T21:34:05.119Z,1.40
2022-11-21T21:36:32.341Z,1.70
2022-11-21T21:39:00.402Z,1.40
2022-11-21T21:41:30.506Z,1.50
2022-11-21T21:43:57.943Z,1.20
2022-11-21T21:46:27.044Z,1.17
2022-11-21T21:48:56.027Z,1.30
2022-11-21T21:51:25.139Z,0.95
2022-11-21T21:53:53.024Z,1.48
2022-11-21T21:56:21.106Z,1.45
2022-11-21T21:58:49.297Z,2.53
2022-11-21T22:01:22.115Z,0.98
2022-11-21T22:03:51.962Z,1.75
2022-11-21T22:06:19.117Z,1.35
2022-11-21T22:08:47.368Z,1.48
2022-11-21T22:11:19.671Z,1.58
2022-11-21T22:13:51.984Z,1.27
2022-11-21T22:16:18.677Z,2.17
2022-11-21T22:18:45.386Z,1.90
2022-11-21T22:21:18.935Z,1.05
2022-11-21T22:24:17.324Z,1.15
2022-11-21T22:26:32.947Z,2.13
2022-11-21T22:28:59.549Z,1.10
2022-11-21T22:31:26.106Z,1.67
2022-11-21T22:33:52.761Z,1.50
2022-11-21T22:36:19.385Z,1.38
2022-11-21T22:38:46.526Z,1.35
2022-11-21T22:41:18.713Z,1.80
2022-11-21T22:43:49.853Z,1.27
2022-11-21T22:46:17.270Z,1.55
2022-11-21T22:48:43.798Z,1.20
2022-11-21T22:51:13.962Z,1.52
2022-11-21T22:53:41.012Z,1.73
2022-11-21T22:56:10.067Z,1.05
2022-11-21T22:58:40.588Z,1.80
2022-11-21T23:01:18.773Z,2.35
2022-11-21T23:03:45.453Z,1.35
2022-11-21T23:06:20.472Z,1.50
2022-11-21T23:08:47.755Z,1.50
2022-11-21T23:11:22.477Z,1.40
2022-11-21T23:13:49.959Z,1.85
2022-11-21T23:16:17.168Z,1.20
2022-11-21T23:18:43.919Z,1.50
2022-11-21T23:21:11.572Z,1.02
2022-11-21T23:23:38.212Z,0.90
2022-11-21T23:26:05.777Z,1.35
2022-11-21T23:28:32.468Z,1.52
2022-11-21T23:30:59.473Z,1.35
2022-11-21T23:33:26.061Z,1.73
2022-11-21T23:35:52.792Z,1.75
2022-11-21T23:38:19.926Z,1.50
2022-11-21T23:40:47.764Z,1.38
2022-11-21T23:43:15.154Z,1.77
2022-11-21T23:45:41.875Z,1.08
2022-11-21T23:48:08.549Z,2.17
2022-11-21T23:50:35.216Z,1.48
2022-11-21T23:53:02.423Z,1.20
2022-11-21T23:55:29.079Z,1.60
2022-11-21T23:57:55.660Z,1.50
